Airfield :







YOU CAN JOIN US ON...

 
LOGIN :

Register | Disclaimer

   EN    FR    IT 

 









Legend :    VFR   Marginal VFR   IFR   Intensive IFR   Very Intensive IFR
Visi :
Ceiling :
>= 8 km
>= 3000ft
5 to 8 km
1000 to 3000 ft
1500m to 5 km
500 to 1000 ft
800 to 1500m
200 to 500 ft
< 800m
< 200 ft
Symbols :   Thunderstorms  Fog  Heavy snow  Heavy precipitations  Wind > 20 kt






- Airport Elevation : 522 ft
- IATA code : YBG


CYBG - CFB Bagotville

CURRENT METAR :
  • 251000Z 00000KT 25SM FEW140 SCT190 M15/M17 A3036 RMK AC2AC2 SLP296

EXPIRED METARs :
  • 250900Z 00000KT 25SM BKN190 M15/M17 A3037 RMK AC7 SLP299
  • 250800Z 23002KT 25SM OVC190 M15/M16 A3039 RMK AC8 SLP306

TAF TAF CYBG
Valid from the 25 at 06:00 until the 26 at 06:00 UTC


250530Z 2506/2606 VRB03KT P6SM SCT120 BKN220
FM251200 11008KT P6SM SCT010 BKN100
FM251600 10010KT P6SM FEW010 SCT100
BECMG 2520/2522 FEW010 SCT160
FM260300 10012KT P6SM OVC100 RMK NXT FCST BY 251200Z



MET'MAP, your aeronautical weather chart ! - Copyright ORBIFLY December 2007 - Disclaimer

ORBIFLY MET'MAP TEAM :

Programming & Development : Alexandra Zaïnal
Concept & original design : Baudouin d'Aumeries
Assistance for programming : Marc-Olivier Méhu
Technical & hardware support : Manuel Goepfert

Contact : metmap@orbifly.com




SOURCES & CREDITS :

   NOAA